sensor_id;sensor_type;location;lat;lon;timestamp;P1;durP1;ratioP1;P2;durP2;ratioP2
20251;SDS011;10284;58.364;15.550;2022-07-06T00:01:25;5.95;;;1.70;;
20251;SDS011;10284;58.364;15.550;2022-07-06T00:03:50;3.53;;;1.55;;
20251;SDS011;10284;58.364;15.550;2022-07-06T00:06:16;4.82;;;1.42;;
20251;SDS011;10284;58.364;15.550;2022-07-06T00:08:42;3.88;;;1.60;;
20251;SDS011;10284;58.364;15.550;2022-07-06T00:11:08;4.25;;;1.50;;
20251;SDS011;10284;58.364;15.550;2022-07-06T00:13:33;6.88;;;1.60;;
20251;SDS011;10284;58.364;15.550;2022-07-06T00:15:59;5.55;;;1.60;;
20251;SDS011;10284;58.364;15.550;2022-07-06T00:18:24;5.82;;;1.70;;
20251;SDS011;10284;58.364;15.550;2022-07-06T00:20:49;4.30;;;1.65;;
20251;SDS011;10284;58.364;15.550;2022-07-06T00:23:15;4.90;;;1.70;;
20251;SDS011;10284;58.364;15.550;2022-07-06T00:25:40;4.03;;;1.60;;
20251;SDS011;10284;58.364;15.550;2022-07-06T00:28:06;6.55;;;1.63;;
20251;SDS011;10284;58.364;15.550;2022-07-06T00:30:31;6.28;;;1.80;;
20251;SDS011;10284;58.364;15.550;2022-07-06T00:32:57;4.90;;;1.60;;
20251;SDS011;10284;58.364;15.550;2022-07-06T00:35:23;5.55;;;1.90;;
20251;SDS011;10284;58.364;15.550;2022-07-06T00:37:49;7.30;;;1.50;;
20251;SDS011;10284;58.364;15.550;2022-07-06T00:40:15;4.82;;;1.60;;
20251;SDS011;10284;58.364;15.550;2022-07-06T00:42:41;6.93;;;1.70;;
20251;SDS011;10284;58.364;15.550;2022-07-06T00:45:07;4.80;;;1.77;;
20251;SDS011;10284;58.364;15.550;2022-07-06T00:47:33;5.90;;;1.63;;
20251;SDS011;10284;58.364;15.550;2022-07-06T00:49:58;6.18;;;1.80;;
20251;SDS011;10284;58.364;15.550;2022-07-06T00:52:42;4.07;;;1.50;;
20251;SDS011;10284;58.364;15.550;2022-07-06T00:55:16;5.07;;;1.60;;
20251;SDS011;10284;58.364;15.550;2022-07-06T00:57:44;8.43;;;1.73;;
20251;SDS011;10284;58.364;15.550;2022-07-06T01:00:10;6.97;;;1.42;;
20251;SDS011;10284;58.364;15.550;2022-07-06T01:02:37;4.05;;;1.90;;
20251;SDS011;10284;58.364;15.550;2022-07-06T01:05:03;4.20;;;1.83;;
20251;SDS011;10284;58.364;15.550;2022-07-06T01:07:29;5.60;;;2.00;;
20251;SDS011;10284;58.364;15.550;2022-07-06T01:09:55;5.75;;;2.67;;
20251;SDS011;10284;58.364;15.550;2022-07-06T01:12:21;5.72;;;1.77;;
20251;SDS011;10284;58.364;15.550;2022-07-06T01:14:46;4.97;;;1.95;;
20251;SDS011;10284;58.364;15.550;2022-07-06T01:17:13;4.30;;;1.90;;
20251;SDS011;10284;58.364;15.550;2022-07-06T01:19:40;7.72;;;1.52;;
20251;SDS011;10284;58.364;15.550;2022-07-06T01:22:06;7.28;;;1.77;;
20251;SDS011;10284;58.364;15.550;2022-07-06T01:24:31;4.07;;;1.50;;
20251;SDS011;10284;58.364;15.550;2022-07-06T01:26:57;3.97;;;1.65;;
20251;SDS011;10284;58.364;15.550;2022-07-06T01:29:22;3.50;;;1.52;;
20251;SDS011;10284;58.364;15.550;2022-07-06T01:31:48;6.05;;;1.70;;
20251;SDS011;10284;58.364;15.550;2022-07-06T01:34:18;4.13;;;1.52;;
20251;SDS011;10284;58.364;15.550;2022-07-06T01:36:43;4.03;;;1.85;;
20251;SDS011;10284;58.364;15.550;2022-07-06T01:39:09;6.45;;;1.88;;
20251;SDS011;10284;58.364;15.550;2022-07-06T01:41:35;6.32;;;1.95;;
20251;SDS011;10284;58.364;15.550;2022-07-06T01:44:01;5.05;;;1.65;;
20251;SDS011;10284;58.364;15.550;2022-07-06T01:46:27;7.10;;;1.92;;
20251;SDS011;10284;58.364;15.550;2022-07-06T01:48:53;7.45;;;1.75;;
20251;SDS011;10284;58.364;15.550;2022-07-06T01:51:18;5.85;;;1.80;;
20251;SDS011;10284;58.364;15.550;2022-07-06T01:53:44;7.90;;;1.83;;
20251;SDS011;10284;58.364;15.550;2022-07-06T01:56:10;4.72;;;1.95;;
20251;SDS011;10284;58.364;15.550;2022-07-06T01:58:36;4.10;;;1.50;;
20251;SDS011;10284;58.364;15.550;2022-07-06T02:01:18;4.60;;;1.70;;
20251;SDS011;10284;58.364;15.550;2022-07-06T02:03:45;4.40;;;2.10;;
20251;SDS011;10284;58.364;15.550;2022-07-06T02:06:11;6.07;;;1.80;;
20251;SDS011;10284;58.364;15.550;2022-07-06T02:08:39;4.15;;;1.90;;
20251;SDS011;10284;58.364;15.550;2022-07-06T02:11:06;4.53;;;1.60;;
20251;SDS011;10284;58.364;15.550;2022-07-06T02:13:32;3.45;;;1.50;;
20251;SDS011;10284;58.364;15.550;2022-07-06T02:15:59;7.35;;;1.77;;
20251;SDS011;10284;58.364;15.550;2022-07-06T02:18:25;3.67;;;1.73;;
20251;SDS011;10284;58.364;15.550;2022-07-06T02:20:50;5.85;;;1.60;;
20251;SDS011;10284;58.364;15.550;2022-07-06T02:23:15;6.72;;;1.52;;
20251;SDS011;10284;58.364;15.550;2022-07-06T02:25:41;6.45;;;1.73;;
20251;SDS011;10284;58.364;15.550;2022-07-06T02:28:06;4.95;;;1.90;;
20251;SDS011;10284;58.364;15.550;2022-07-06T02:30:32;5.03;;;1.70;;
20251;SDS011;10284;58.364;15.550;2022-07-06T02:32:57;4.57;;;1.50;;
20251;SDS011;10284;58.364;15.550;2022-07-06T02:35:23;6.93;;;1.98;;
20251;SDS011;10284;58.364;15.550;2022-07-06T02:37:48;6.13;;;1.80;;
20251;SDS011;10284;58.364;15.550;2022-07-06T02:40:14;7.53;;;2.05;;
20251;SDS011;10284;58.364;15.550;2022-07-06T02:42:39;4.68;;;2.13;;
20251;SDS011;10284;58.364;15.550;2022-07-06T02:45:06;10.02;;;2.47;;
20251;SDS011;10284;58.364;15.550;2022-07-06T02:47:31;7.68;;;2.47;;
20251;SDS011;10284;58.364;15.550;2022-07-06T02:49:57;7.45;;;2.00;;
20251;SDS011;10284;58.364;15.550;2022-07-06T02:52:22;8.70;;;1.52;;
20251;SDS011;10284;58.364;15.550;2022-07-06T02:54:48;8.77;;;1.95;;
20251;SDS011;10284;58.364;15.550;2022-07-06T02:57:14;3.88;;;1.52;;
20251;SDS011;10284;58.364;15.550;2022-07-06T02:59:39;5.78;;;1.98;;
20251;SDS011;10284;58.364;15.550;2022-07-06T03:02:05;6.53;;;1.60;;
20251;SDS011;10284;58.364;15.550;2022-07-06T03:04:31;6.60;;;1.40;;
20251;SDS011;10284;58.364;15.550;2022-07-06T03:06:57;7.65;;;1.88;;
20251;SDS011;10284;58.364;15.550;2022-07-06T03:09:22;5.30;;;1.60;;
20251;SDS011;10284;58.364;15.550;2022-07-06T03:11:47;6.30;;;1.55;;
20251;SDS011;10284;58.364;15.550;2022-07-06T03:14:13;5.00;;;1.45;;
20251;SDS011;10284;58.364;15.550;2022-07-06T03:16:38;6.55;;;1.58;;
20251;SDS011;10284;58.364;15.550;2022-07-06T03:19:04;5.03;;;1.52;;
20251;SDS011;10284;58.364;15.550;2022-07-06T03:21:29;7.05;;;1.70;;
20251;SDS011;10284;58.364;15.550;2022-07-06T03:23:55;5.75;;;1.33;;
20251;SDS011;10284;58.364;15.550;2022-07-06T03:26:20;7.70;;;1.83;;
20251;SDS011;10284;58.364;15.550;2022-07-06T03:28:45;3.85;;;1.48;;
20251;SDS011;10284;58.364;15.550;2022-07-06T03:31:11;3.10;;;1.50;;
20251;SDS011;10284;58.364;15.550;2022-07-06T03:33:36;6.25;;;1.70;;
20251;SDS011;10284;58.364;15.550;2022-07-06T03:36:02;7.32;;;1.90;;
20251;SDS011;10284;58.364;15.550;2022-07-06T03:38:27;4.70;;;2.10;;
20251;SDS011;10284;58.364;15.550;2022-07-06T03:40:53;4.78;;;1.63;;
20251;SDS011;10284;58.364;15.550;2022-07-06T03:43:18;9.05;;;1.77;;
20251;SDS011;10284;58.364;15.550;2022-07-06T03:45:44;7.15;;;1.52;;
20251;SDS011;10284;58.364;15.550;2022-07-06T03:48:09;7.95;;;1.63;;
20251;SDS011;10284;58.364;15.550;2022-07-06T03:50:35;9.35;;;1.52;;
20251;SDS011;10284;58.364;15.550;2022-07-06T03:53:00;5.65;;;1.65;;
20251;SDS011;10284;58.364;15.550;2022-07-06T03:55:26;7.75;;;1.67;;
20251;SDS011;10284;58.364;15.550;2022-07-06T03:57:51;7.32;;;1.60;;
20251;SDS011;10284;58.364;15.550;2022-07-06T04:00:17;9.70;;;1.77;;
20251;SDS011;10284;58.364;15.550;2022-07-06T04:02:42;5.38;;;1.65;;
20251;SDS011;10284;58.364;15.550;2022-07-06T04:05:08;5.75;;;1.42;;
20251;SDS011;10284;58.364;15.550;2022-07-06T04:07:33;5.00;;;1.70;;
20251;SDS011;10284;58.364;15.550;2022-07-06T04:09:58;8.10;;;2.10;;
20251;SDS011;10284;58.364;15.550;2022-07-06T04:12:24;3.97;;;1.52;;
20251;SDS011;10284;58.364;15.550;2022-07-06T04:14:49;5.78;;;1.63;;
20251;SDS011;10284;58.364;15.550;2022-07-06T04:17:15;4.15;;;1.40;;
20251;SDS011;10284;58.364;15.550;2022-07-06T04:19:59;5.32;;;1.35;;
20251;SDS011;10284;58.364;15.550;2022-07-06T04:22:24;4.10;;;1.50;;
20251;SDS011;10284;58.364;15.550;2022-07-06T04:24:50;5.13;;;1.52;;
20251;SDS011;10284;58.364;15.550;2022-07-06T04:27:15;5.07;;;1.73;;
20251;SDS011;10284;58.364;15.550;2022-07-06T04:29:40;8.63;;;1.65;;
20251;SDS011;10284;58.364;15.550;2022-07-06T04:32:06;6.28;;;1.60;;
20251;SDS011;10284;58.364;15.550;2022-07-06T04:34:31;4.88;;;1.50;;
20251;SDS011;10284;58.364;15.550;2022-07-06T04:36:57;7.50;;;1.92;;
20251;SDS011;10284;58.364;15.550;2022-07-06T04:39:22;6.35;;;1.90;;
20251;SDS011;10284;58.364;15.550;2022-07-06T04:41:48;5.25;;;1.50;;
20251;SDS011;10284;58.364;15.550;2022-07-06T04:44:13;7.00;;;1.67;;
20251;SDS011;10284;58.364;15.550;2022-07-06T04:46:39;5.50;;;1.40;;
20251;SDS011;10284;58.364;15.550;2022-07-06T04:49:04;7.00;;;2.00;;
20251;SDS011;10284;58.364;15.550;2022-07-06T04:51:30;6.70;;;1.70;;
20251;SDS011;10284;58.364;15.550;2022-07-06T04:53:55;6.10;;;1.50;;
20251;SDS011;10284;58.364;15.550;2022-07-06T04:56:20;6.25;;;2.78;;
20251;SDS011;10284;58.364;15.550;2022-07-06T04:58:46;4.43;;;1.42;;
20251;SDS011;10284;58.364;15.550;2022-07-06T05:01:13;5.15;;;1.70;;
20251;SDS011;10284;58.364;15.550;2022-07-06T05:03:38;5.05;;;1.55;;
20251;SDS011;10284;58.364;15.550;2022-07-06T05:06:06;4.75;;;1.45;;
20251;SDS011;10284;58.364;15.550;2022-07-06T05:08:31;4.60;;;1.90;;
20251;SDS011;10284;58.364;15.550;2022-07-06T05:10:57;4.95;;;1.40;;
20251;SDS011;10284;58.364;15.550;2022-07-06T05:13:23;5.60;;;1.50;;
20251;SDS011;10284;58.364;15.550;2022-07-06T05:15:48;6.85;;;1.55;;
20251;SDS011;10284;58.364;15.550;2022-07-06T05:18:13;4.75;;;1.40;;
20251;SDS011;10284;58.364;15.550;2022-07-06T05:20:39;4.05;;;1.40;;
20251;SDS011;10284;58.364;15.550;2022-07-06T05:23:05;5.53;;;1.33;;
20251;SDS011;10284;58.364;15.550;2022-07-06T05:25:30;5.95;;;1.25;;
20251;SDS011;10284;58.364;15.550;2022-07-06T05:27:57;5.70;;;1.27;;
20251;SDS011;10284;58.364;15.550;2022-07-06T05:30:23;3.45;;;1.20;;
20251;SDS011;10284;58.364;15.550;2022-07-06T05:32:48;4.25;;;1.35;;
20251;SDS011;10284;58.364;15.550;2022-07-06T05:35:14;5.03;;;1.40;;
20251;SDS011;10284;58.364;15.550;2022-07-06T05:37:39;3.80;;;1.23;;
20251;SDS011;10284;58.364;15.550;2022-07-06T05:40:05;4.15;;;1.30;;
20251;SDS011;10284;58.364;15.550;2022-07-06T05:42:30;4.03;;;1.17;;
20251;SDS011;10284;58.364;15.550;2022-07-06T05:44:56;3.88;;;1.10;;
20251;SDS011;10284;58.364;15.550;2022-07-06T05:47:22;4.25;;;1.25;;
20251;SDS011;10284;58.364;15.550;2022-07-06T05:50:06;5.82;;;1.50;;
20251;SDS011;10284;58.364;15.550;2022-07-06T05:52:41;7.43;;;1.35;;
20251;SDS011;10284;58.364;15.550;2022-07-06T05:55:08;3.72;;;1.20;;
20251;SDS011;10284;58.364;15.550;2022-07-06T05:57:34;4.32;;;1.10;;
20251;SDS011;10284;58.364;15.550;2022-07-06T05:59:59;4.95;;;1.40;;
20251;SDS011;10284;58.364;15.550;2022-07-06T06:02:24;5.47;;;1.20;;
20251;SDS011;10284;58.364;15.550;2022-07-06T06:04:50;8.32;;;1.42;;
20251;SDS011;10284;58.364;15.550;2022-07-06T06:07:15;6.63;;;1.10;;
20251;SDS011;10284;58.364;15.550;2022-07-06T06:09:41;8.63;;;1.42;;
20251;SDS011;10284;58.364;15.550;2022-07-06T06:12:07;8.02;;;1.33;;
20251;SDS011;10284;58.364;15.550;2022-07-06T06:14:32;4.63;;;1.30;;
20251;SDS011;10284;58.364;15.550;2022-07-06T06:16:58;5.53;;;1.63;;
20251;SDS011;10284;58.364;15.550;2022-07-06T06:19:24;4.97;;;1.58;;
20251;SDS011;10284;58.364;15.550;2022-07-06T06:21:49;4.78;;;1.30;;
20251;SDS011;10284;58.364;15.550;2022-07-06T06:24:16;4.80;;;1.30;;
20251;SDS011;10284;58.364;15.550;2022-07-06T06:26:42;3.20;;;1.13;;
20251;SDS011;10284;58.364;15.550;2022-07-06T06:29:08;7.93;;;1.67;;
20251;SDS011;10284;58.364;15.550;2022-07-06T06:31:33;5.90;;;1.20;;
20251;SDS011;10284;58.364;15.550;2022-07-06T06:33:58;4.90;;;1.40;;
20251;SDS011;10284;58.364;15.550;2022-07-06T06:36:24;5.15;;;1.25;;
20251;SDS011;10284;58.364;15.550;2022-07-06T06:38:49;4.85;;;0.98;;
20251;SDS011;10284;58.364;15.550;2022-07-06T06:41:15;4.10;;;0.95;;
20251;SDS011;10284;58.364;15.550;2022-07-06T06:43:40;5.63;;;1.17;;
20251;SDS011;10284;58.364;15.550;2022-07-06T06:46:05;5.47;;;0.90;;
20251;SDS011;10284;58.364;15.550;2022-07-06T06:48:31;6.25;;;1.13;;
20251;SDS011;10284;58.364;15.550;2022-07-06T06:50:56;4.97;;;1.50;;
20251;SDS011;10284;58.364;15.550;2022-07-06T06:53:22;5.60;;;1.15;;
20251;SDS011;10284;58.364;15.550;2022-07-06T06:55:48;4.20;;;1.00;;
20251;SDS011;10284;58.364;15.550;2022-07-06T06:58:14;4.53;;;0.95;;
20251;SDS011;10284;58.364;15.550;2022-07-06T07:00:39;4.90;;;0.80;;
20251;SDS011;10284;58.364;15.550;2022-07-06T07:03:05;5.13;;;1.15;;
20251;SDS011;10284;58.364;15.550;2022-07-06T07:05:30;6.50;;;1.25;;
20251;SDS011;10284;58.364;15.550;2022-07-06T07:07:56;5.75;;;1.02;;
20251;SDS011;10284;58.364;15.550;2022-07-06T07:10:24;5.85;;;1.67;;
20251;SDS011;10284;58.364;15.550;2022-07-06T07:12:50;5.82;;;1.05;;
20251;SDS011;10284;58.364;15.550;2022-07-06T07:15:16;5.05;;;0.93;;
20251;SDS011;10284;58.364;15.550;2022-07-06T07:17:41;4.05;;;0.80;;
20251;SDS011;10284;58.364;15.550;2022-07-06T07:20:07;4.35;;;1.00;;
20251;SDS011;10284;58.364;15.550;2022-07-06T07:22:33;5.80;;;1.20;;
20251;SDS011;10284;58.364;15.550;2022-07-06T07:24:58;3.53;;;0.90;;
20251;SDS011;10284;58.364;15.550;2022-07-06T07:27:24;2.35;;;0.80;;
20251;SDS011;10284;58.364;15.550;2022-07-06T07:29:50;4.10;;;0.98;;
20251;SDS011;10284;58.364;15.550;2022-07-06T07:32:15;5.53;;;1.10;;
20251;SDS011;10284;58.364;15.550;2022-07-06T07:34:41;2.72;;;1.00;;
20251;SDS011;10284;58.364;15.550;2022-07-06T07:37:06;4.97;;;1.17;;
20251;SDS011;10284;58.364;15.550;2022-07-06T07:39:32;3.33;;;0.82;;
20251;SDS011;10284;58.364;15.550;2022-07-06T07:41:57;3.47;;;1.17;;
20251;SDS011;10284;58.364;15.550;2022-07-06T07:44:23;2.95;;;0.90;;
20251;SDS011;10284;58.364;15.550;2022-07-06T07:46:49;2.03;;;0.82;;
20251;SDS011;10284;58.364;15.550;2022-07-06T07:49:15;5.13;;;0.88;;
20251;SDS011;10284;58.364;15.550;2022-07-06T07:51:40;4.78;;;1.00;;
20251;SDS011;10284;58.364;15.550;2022-07-06T07:54:06;5.60;;;1.02;;
20251;SDS011;10284;58.364;15.550;2022-07-06T07:56:32;3.17;;;0.70;;
20251;SDS011;10284;58.364;15.550;2022-07-06T07:58:57;2.33;;;1.08;;
20251;SDS011;10284;58.364;15.550;2022-07-06T08:01:23;4.18;;;1.00;;
20251;SDS011;10284;58.364;15.550;2022-07-06T08:03:48;3.85;;;1.00;;
20251;SDS011;10284;58.364;15.550;2022-07-06T08:06:13;4.70;;;1.15;;
20251;SDS011;10284;58.364;15.550;2022-07-06T08:08:39;5.72;;;1.10;;
20251;SDS011;10284;58.364;15.550;2022-07-06T08:11:04;2.55;;;0.80;;
20251;SDS011;10284;58.364;15.550;2022-07-06T08:13:30;5.07;;;1.23;;
20251;SDS011;10284;58.364;15.550;2022-07-06T08:15:55;6.38;;;1.13;;
20251;SDS011;10284;58.364;15.550;2022-07-06T08:18:21;2.92;;;1.20;;
20251;SDS011;10284;58.364;15.550;2022-07-06T08:20:46;3.83;;;0.88;;
20251;SDS011;10284;58.364;15.550;2022-07-06T08:23:12;4.68;;;0.80;;
20251;SDS011;10284;58.364;15.550;2022-07-06T08:25:38;2.30;;;0.70;;
20251;SDS011;10284;58.364;15.550;2022-07-06T08:28:03;2.20;;;0.95;;
20251;SDS011;10284;58.364;15.550;2022-07-06T08:30:28;3.28;;;0.73;;
20251;SDS011;10284;58.364;15.550;2022-07-06T08:32:56;2.63;;;0.98;;
20251;SDS011;10284;58.364;15.550;2022-07-06T08:35:21;1.73;;;0.90;;
20251;SDS011;10284;58.364;15.550;2022-07-06T08:37:47;3.55;;;0.82;;
20251;SDS011;10284;58.364;15.550;2022-07-06T08:40:12;3.63;;;0.98;;
20251;SDS011;10284;58.364;15.550;2022-07-06T08:42:38;2.22;;;0.63;;
20251;SDS011;10284;58.364;15.550;2022-07-06T08:45:04;3.10;;;0.90;;
20251;SDS011;10284;58.364;15.550;2022-07-06T08:47:31;4.38;;;1.10;;
20251;SDS011;10284;58.364;15.550;2022-07-06T08:49:57;6.65;;;0.88;;
20251;SDS011;10284;58.364;15.550;2022-07-06T08:52:22;1.35;;;0.70;;
20251;SDS011;10284;58.364;15.550;2022-07-06T08:54:48;2.90;;;0.75;;
20251;SDS011;10284;58.364;15.550;2022-07-06T08:57:14;5.30;;;1.00;;
20251;SDS011;10284;58.364;15.550;2022-07-06T08:59:40;6.03;;;1.17;;
20251;SDS011;10284;58.364;15.550;2022-07-06T09:02:05;5.55;;;0.80;;
20251;SDS011;10284;58.364;15.550;2022-07-06T09:04:32;2.88;;;0.80;;
20251;SDS011;10284;58.364;15.550;2022-07-06T09:06:58;5.82;;;0.88;;
20251;SDS011;10284;58.364;15.550;2022-07-06T09:09:24;2.90;;;0.93;;
20251;SDS011;10284;58.364;15.550;2022-07-06T09:11:50;3.33;;;0.95;;
20251;SDS011;10284;58.364;15.550;2022-07-06T09:14:16;4.82;;;0.93;;
20251;SDS011;10284;58.364;15.550;2022-07-06T09:16:43;2.47;;;0.65;;
20251;SDS011;10284;58.364;15.550;2022-07-06T09:19:10;4.32;;;0.70;;
20251;SDS011;10284;58.364;15.550;2022-07-06T09:21:36;3.90;;;0.77;;
20251;SDS011;10284;58.364;15.550;2022-07-06T09:24:05;0.70;;;0.70;;
20251;SDS011;10284;58.364;15.550;2022-07-06T09:26:32;4.35;;;1.00;;
20251;SDS011;10284;58.364;15.550;2022-07-06T09:28:58;2.05;;;0.70;;
20251;SDS011;10284;58.364;15.550;2022-07-06T09:31:24;5.53;;;0.70;;
20251;SDS011;10284;58.364;15.550;2022-07-06T09:33:54;3.35;;;0.65;;
20251;SDS011;10284;58.364;15.550;2022-07-06T09:36:37;4.10;;;0.80;;
20251;SDS011;10284;58.364;15.550;2022-07-06T09:41:57;3.17;;;1.25;;
20251;SDS011;10284;58.364;15.550;2022-07-06T09:44:27;4.90;;;0.70;;
20251;SDS011;10284;58.364;15.550;2022-07-06T09:46:57;1.98;;;0.70;;
20251;SDS011;10284;58.364;15.550;2022-07-06T09:49:27;2.90;;;0.60;;
20251;SDS011;10284;58.364;15.550;2022-07-06T09:52:00;2.20;;;0.70;;
20251;SDS011;10284;58.364;15.550;2022-07-06T09:54:27;1.83;;;0.57;;
20251;SDS011;10284;58.364;15.550;2022-07-06T09:56:53;2.05;;;0.60;;
20251;SDS011;10284;58.364;15.550;2022-07-06T09:59:20;1.52;;;0.45;;
20251;SDS011;10284;58.364;15.550;2022-07-06T10:01:52;5.05;;;0.70;;
20251;SDS011;10284;58.364;15.550;2022-07-06T10:04:20;1.70;;;0.57;;
20251;SDS011;10284;58.364;15.550;2022-07-06T10:06:47;2.22;;;0.60;;
20251;SDS011;10284;58.364;15.550;2022-07-06T10:09:13;2.40;;;0.60;;
20251;SDS011;10284;58.364;15.550;2022-07-06T10:11:49;2.40;;;0.60;;
20251;SDS011;10284;58.364;15.550;2022-07-06T10:14:31;3.80;;;0.73;;
20251;SDS011;10284;58.364;15.550;2022-07-06T10:16:58;4.75;;;0.70;;
20251;SDS011;10284;58.364;15.550;2022-07-06T10:19:26;2.30;;;0.50;;
20251;SDS011;10284;58.364;15.550;2022-07-06T10:21:53;2.40;;;0.40;;
20251;SDS011;10284;58.364;15.550;2022-07-06T10:24:19;3.50;;;0.63;;
20251;SDS011;10284;58.364;15.550;2022-07-06T10:26:45;1.10;;;0.30;;
20251;SDS011;10284;58.364;15.550;2022-07-06T10:29:11;2.95;;;0.98;;
20251;SDS011;10284;58.364;15.550;2022-07-06T10:31:38;3.00;;;0.47;;
20251;SDS011;10284;58.364;15.550;2022-07-06T10:34:06;3.38;;;0.70;;
20251;SDS011;10284;58.364;15.550;2022-07-06T10:36:36;3.88;;;0.73;;
20251;SDS011;10284;58.364;15.550;2022-07-06T10:39:05;2.65;;;0.45;;
20251;SDS011;10284;58.364;15.550;2022-07-06T10:41:51;0.52;;;0.40;;
20251;SDS011;10284;58.364;15.550;2022-07-06T10:44:18;1.15;;;0.40;;
20251;SDS011;10284;58.364;15.550;2022-07-06T10:49:19;4.50;;;0.68;;
20251;SDS011;10284;58.364;15.550;2022-07-06T10:51:44;1.27;;;0.52;;
20251;SDS011;10284;58.364;15.550;2022-07-06T10:54:11;1.42;;;0.85;;
20251;SDS011;10284;58.364;15.550;2022-07-06T10:59:11;1.20;;;0.40;;
20251;SDS011;10284;58.364;15.550;2022-07-06T11:01:38;0.85;;;0.40;;
20251;SDS011;10284;58.364;15.550;2022-07-06T11:04:08;0.55;;;0.30;;
20251;SDS011;10284;58.364;15.550;2022-07-06T11:06:37;0.63;;;0.40;;
20251;SDS011;10284;58.364;15.550;2022-07-06T11:09:10;2.05;;;0.40;;
20251;SDS011;10284;58.364;15.550;2022-07-06T11:17:14;3.03;;;0.40;;
20251;SDS011;10284;58.364;15.550;2022-07-06T11:19:15;0.30;;;0.30;;
20251;SDS011;10284;58.364;15.550;2022-07-06T11:21:48;0.88;;;0.20;;
20251;SDS011;10284;58.364;15.550;2022-07-06T11:24:17;1.17;;;0.25;;
20251;SDS011;10284;58.364;15.550;2022-07-06T11:26:45;3.05;;;0.30;;
20251;SDS011;10284;58.364;15.550;2022-07-06T11:29:12;2.50;;;0.28;;
20251;SDS011;10284;58.364;15.550;2022-07-06T11:31:39;0.70;;;0.20;;
20251;SDS011;10284;58.364;15.550;2022-07-06T11:34:06;0.82;;;0.40;;
20251;SDS011;10284;58.364;15.550;2022-07-06T11:36:32;0.43;;;0.38;;
20251;SDS011;10284;58.364;15.550;2022-07-06T11:38:57;0.20;;;0.20;;
20251;SDS011;10284;58.364;15.550;2022-07-06T11:41:23;0.50;;;0.10;;
20251;SDS011;10284;58.364;15.550;2022-07-06T11:43:49;0.40;;;0.30;;
20251;SDS011;10284;58.364;15.550;2022-07-06T11:48:58;0.40;;;0.20;;
20251;SDS011;10284;58.364;15.550;2022-07-06T11:51:25;1.58;;;0.10;;
20251;SDS011;10284;58.364;15.550;2022-07-06T11:53:56;1.05;;;0.20;;
20251;SDS011;10284;58.364;15.550;2022-07-06T11:56:24;0.90;;;0.10;;
20251;SDS011;10284;58.364;15.550;2022-07-06T11:58:52;1.10;;;0.20;;
20251;SDS011;10284;58.364;15.550;2022-07-06T12:01:20;0.32;;;0.03;;
20251;SDS011;10284;58.364;15.550;2022-07-06T12:03:47;0.10;;;0.10;;
20251;SDS011;10284;58.364;15.550;2022-07-06T12:06:17;0.10;;;0.10;;
20251;SDS011;10284;58.364;15.550;2022-07-06T12:08:43;0.28;;;0.10;;
20251;SDS011;10284;58.364;15.550;2022-07-06T12:11:09;0.10;;;0.10;;
20251;SDS011;10284;58.364;15.550;2022-07-06T12:13:38;1.10;;;0.20;;
20251;SDS011;10284;58.364;15.550;2022-07-06T12:16:11;1.67;;;0.10;;
20251;SDS011;10284;58.364;15.550;2022-07-06T12:18:40;0.10;;;0.10;;
20251;SDS011;10284;58.364;15.550;2022-07-06T12:21:09;0.70;;;0.10;;
20251;SDS011;10284;58.364;15.550;2022-07-06T12:23:46;3.03;;;0.17;;
20251;SDS011;10284;58.364;15.550;2022-07-06T12:26:14;1.65;;;0.10;;
20251;SDS011;10284;58.364;15.550;2022-07-06T12:28:40;1.65;;;0.10;;
20251;SDS011;10284;58.364;15.550;2022-07-06T12:31:06;0.30;;;0.20;;
20251;SDS011;10284;58.364;15.550;2022-07-06T12:33:32;0.38;;;0.10;;
20251;SDS011;10284;58.364;15.550;2022-07-06T12:36:08;0.85;;;0.20;;
20251;SDS011;10284;58.364;15.550;2022-07-06T12:38:43;0.17;;;0.10;;
20251;SDS011;10284;58.364;15.550;2022-07-06T12:41:10;1.00;;;0.15;;
20251;SDS011;10284;58.364;15.550;2022-07-06T12:43:38;8.98;;;0.40;;
20251;SDS011;10284;58.364;15.550;2022-07-06T12:48:56;0.10;;;0.10;;
20251;SDS011;10284;58.364;15.550;2022-07-06T12:51:23;1.23;;;0.10;;
20251;SDS011;10284;58.364;15.550;2022-07-06T12:53:48;0.30;;;0.00;;
20251;SDS011;10284;58.364;15.550;2022-07-06T12:56:14;0.50;;;0.10;;
20251;SDS011;10284;58.364;15.550;2022-07-06T12:58:54;1.33;;;0.20;;
20251;SDS011;10284;58.364;15.550;2022-07-06T13:01:23;0.32;;;0.10;;
20251;SDS011;10284;58.364;15.550;2022-07-06T13:03:48;3.38;;;0.10;;
20251;SDS011;10284;58.364;15.550;2022-07-06T13:06:26;0.10;;;0.10;;
20251;SDS011;10284;58.364;15.550;2022-07-06T13:08:56;0.17;;;0.10;;
20251;SDS011;10284;58.364;15.550;2022-07-06T13:11:21;0.40;;;0.10;;
20251;SDS011;10284;58.364;15.550;2022-07-06T13:13:46;0.80;;;0.10;;
20251;SDS011;10284;58.364;15.550;2022-07-06T13:16:12;0.00;;;0.00;;
20251;SDS011;10284;58.364;15.550;2022-07-06T13:18:37;0.88;;;0.10;;
20251;SDS011;10284;58.364;15.550;2022-07-06T13:21:03;1.17;;;0.10;;
20251;SDS011;10284;58.364;15.550;2022-07-06T13:23:28;0.28;;;0.10;;
20251;SDS011;10284;58.364;15.550;2022-07-06T13:25:53;0.55;;;0.05;;
20251;SDS011;10284;58.364;15.550;2022-07-06T13:28:19;1.23;;;0.13;;
20251;SDS011;10284;58.364;15.550;2022-07-06T13:30:44;0.93;;;0.10;;
20251;SDS011;10284;58.364;15.550;2022-07-06T13:33:10;0.10;;;0.00;;
20251;SDS011;10284;58.364;15.550;2022-07-06T13:35:35;0.00;;;0.00;;
20251;SDS011;10284;58.364;15.550;2022-07-06T13:38:01;0.00;;;0.00;;
20251;SDS011;10284;58.364;15.550;2022-07-06T13:40:26;0.00;;;0.00;;
20251;SDS011;10284;58.364;15.550;2022-07-06T13:42:52;0.80;;;0.00;;
20251;SDS011;10284;58.364;15.550;2022-07-06T13:45:19;1.85;;;0.03;;
20251;SDS011;10284;58.364;15.550;2022-07-06T13:47:45;0.95;;;0.00;;
20251;SDS011;10284;58.364;15.550;2022-07-06T13:50:10;1.05;;;0.10;;
20251;SDS011;10284;58.364;15.550;2022-07-06T13:52:35;1.17;;;0.10;;
20251;SDS011;10284;58.364;15.550;2022-07-06T13:55:02;1.45;;;0.20;;
20251;SDS011;10284;58.364;15.550;2022-07-06T13:57:28;1.33;;;0.10;;
20251;SDS011;10284;58.364;15.550;2022-07-06T13:59:54;0.73;;;0.10;;
20251;SDS011;10284;58.364;15.550;2022-07-06T14:02:19;0.82;;;0.20;;
20251;SDS011;10284;58.364;15.550;2022-07-06T14:04:44;0.17;;;0.10;;
20251;SDS011;10284;58.364;15.550;2022-07-06T14:07:10;0.68;;;0.00;;
20251;SDS011;10284;58.364;15.550;2022-07-06T14:09:35;0.20;;;0.13;;
20251;SDS011;10284;58.364;15.550;2022-07-06T14:12:01;2.22;;;0.10;;
20251;SDS011;10284;58.364;15.550;2022-07-06T14:14:27;0.43;;;0.10;;
20251;SDS011;10284;58.364;15.550;2022-07-06T14:16:52;2.70;;;0.30;;
20251;SDS011;10284;58.364;15.550;2022-07-06T14:19:19;1.60;;;0.10;;
20251;SDS011;10284;58.364;15.550;2022-07-06T14:21:47;0.20;;;0.05;;
20251;SDS011;10284;58.364;15.550;2022-07-06T14:24:13;1.35;;;0.00;;
20251;SDS011;10284;58.364;15.550;2022-07-06T14:26:39;0.63;;;0.00;;
20251;SDS011;10284;58.364;15.550;2022-07-06T14:29:04;6.13;;;0.38;;
20251;SDS011;10284;58.364;15.550;2022-07-06T14:31:30;1.27;;;0.10;;
20251;SDS011;10284;58.364;15.550;2022-07-06T14:33:56;0.20;;;0.10;;
20251;SDS011;10284;58.364;15.550;2022-07-06T14:36:21;1.02;;;0.10;;
20251;SDS011;10284;58.364;15.550;2022-07-06T14:38:46;0.00;;;0.00;;
20251;SDS011;10284;58.364;15.550;2022-07-06T14:41:12;0.00;;;0.00;;
20251;SDS011;10284;58.364;15.550;2022-07-06T14:43:38;0.47;;;0.00;;
20251;SDS011;10284;58.364;15.550;2022-07-06T14:46:03;1.80;;;0.17;;
20251;SDS011;10284;58.364;15.550;2022-07-06T14:48:29;1.25;;;0.00;;